Time;durP1;ratioP1;P1;durP2;ratioP2;P2;SDS_P1;SDS_P2;PMS_P1;PMS_P2;Temp;Humidity;BMP_temperature;BMP_pressure;BME280_temperature;BME280_humidity;BME280_pressure;Samples;Min_cycle;Max_cycle;Signal;HPM_P1;HPM_P2
2022/10/20 00:00:57;;;;;;;1999.90;999.90;;;12.50;99.90;;;;;;5073598;28;20429;-67
2022/10/20 00:03:24;;;;;;;1999.90;999.90;;;12.50;99.90;;;;;;5073645;28;20498;-68
2022/10/20 00:05:50;;;;;;;1999.90;999.90;;;12.50;99.90;;;;;;5073401;28;20488;-68
2022/10/20 00:08:15;;;;;;;1999.90;999.90;;;12.50;99.90;;;;;;5073394;28;20830;-68
2022/10/20 00:10:41;;;;;;;1999.90;999.90;;;12.50;99.90;;;;;;5073570;28;20195;-67
2022/10/20 00:13:07;;;;;;;1999.90;999.90;;;12.50;99.90;;;;;;5073537;28;20210;-69
2022/10/20 00:15:33;;;;;;;1999.90;999.90;;;12.50;99.90;;;;;;5073480;28;20274;-68
2022/10/20 00:17:58;;;;;;;1999.90;999.90;;;12.60;99.90;;;;;;5073259;28;20174;-68
2022/10/20 00:20:24;;;;;;;1999.90;999.90;;;12.60;99.90;;;;;;5073150;28;20424;-68
2022/10/20 00:22:49;;;;;;;1999.90;999.90;;;12.50;99.90;;;;;;5073379;28;20263;-67
2022/10/20 00:25:15;;;;;;;1999.90;999.90;;;12.50;99.90;;;;;;5073358;28;20190;-69
2022/10/20 00:27:41;;;;;;;1999.90;999.90;;;12.50;99.90;;;;;;5072750;28;20171;-67
2022/10/20 00:30:07;;;;;;;1999.90;999.90;;;12.50;99.90;;;;;;5072877;28;20687;-68
2022/10/20 00:32:32;;;;;;;1999.90;999.90;;;12.50;99.90;;;;;;5073011;28;20172;-67
2022/10/20 00:34:58;;;;;;;1999.90;999.90;;;12.50;99.90;;;;;;5072856;28;20404;-68
2022/10/20 00:37:23;;;;;;;1999.90;999.90;;;12.50;99.90;;;;;;5072889;28;20250;-68
2022/10/20 00:39:49;;;;;;;1999.90;999.90;;;12.50;99.90;;;;;;5072768;28;20174;-68
2022/10/20 00:42:19;;;;;;;1999.90;999.90;;;12.50;99.90;;;;;;5072763;28;20197;-67
2022/10/20 00:44:50;;;;;;;1999.90;999.90;;;12.50;99.90;;;;;;5072865;28;20167;-68
2022/10/20 00:47:37;;;;;;;1999.90;999.90;;;12.50;99.90;;;;;;5072610;28;20484;-68
2022/10/20 00:50:14;;;;;;;1999.90;999.90;;;12.60;99.90;;;;;;5072741;28;20471;-67
2022/10/20 00:52:41;;;;;;;1999.90;999.90;;;12.60;99.90;;;;;;5072661;28;20397;-68
2022/10/20 00:55:09;;;;;;;1999.90;999.90;;;12.60;99.90;;;;;;5072640;28;20436;-68
2022/10/20 00:57:35;;;;;;;1999.90;999.90;;;12.60;99.90;;;;;;5072350;28;20402;-68
2022/10/20 01:00:01;;;;;;;1999.90;999.90;;;12.60;99.90;;;;;;5072584;28;20427;-68
2022/10/20 01:02:27;;;;;;;1999.90;999.90;;;12.50;99.90;;;;;;5072639;28;20507;-68
2022/10/20 01:04:53;;;;;;;1999.90;999.90;;;12.50;99.90;;;;;;5072511;28;20167;-69
2022/10/20 01:07:18;;;;;;;1999.90;999.90;;;12.50;99.90;;;;;;5072403;28;20198;-68
2022/10/20 01:09:44;;;;;;;1999.90;999.90;;;12.50;99.90;;;;;;5072421;28;20406;-68
2022/10/20 01:12:27;;;;;;;1999.90;999.90;;;12.50;99.90;;;;;;5072245;28;20228;-68
2022/10/20 01:14:58;;;;;;;1999.90;999.90;;;12.50;99.90;;;;;;5072345;28;20415;-68
2022/10/20 01:17:39;;;;;;;1999.90;999.90;;;12.50;99.90;;;;;;5072258;28;20429;-67
2022/10/20 01:20:16;;;;;;;1999.90;999.90;;;12.50;99.90;;;;;;5072169;28;20506;-67
2022/10/20 01:22:50;;;;;;;1999.90;999.90;;;12.50;99.90;;;;;;5072116;28;20442;-68
2022/10/20 01:25:26;;;;;;;1999.90;999.90;;;12.50;99.90;;;;;;5072115;28;20401;-68
2022/10/20 01:27:59;;;;;;;1999.90;999.90;;;12.50;99.90;;;;;;5071877;28;20942;-67
2022/10/20 01:33:19;;;;;;;1999.90;999.90;;;12.50;99.90;;;;;;5111103;22;21008;-71
2022/10/20 01:35:59;;;;;;;1999.90;999.90;;;12.40;99.90;;;;;;5072072;28;20167;-70
2022/10/20 01:38:49;;;;;;;1999.90;999.90;;;12.40;99.90;;;;;;5071995;28;20782;-70
2022/10/20 01:41:34;;;;;;;1999.90;999.90;;;12.40;99.90;;;;;;5071882;28;20415;-71
2022/10/20 01:44:06;;;;;;;1999.90;999.90;;;12.40;99.90;;;;;;5071766;28;20445;-71
2022/10/20 01:46:33;;;;;;;1999.90;999.90;;;12.40;99.90;;;;;;5071352;28;20939;-71
2022/10/20 01:49:02;;;;;;;1999.90;999.90;;;12.40;99.90;;;;;;5071713;28;20405;-71
2022/10/20 01:51:28;;;;;;;1999.90;999.90;;;12.40;99.90;;;;;;5071789;28;20421;-71
2022/10/20 01:53:53;;;;;;;1999.90;999.90;;;12.40;99.90;;;;;;5071831;28;20420;-70
2022/10/20 01:56:39;;;;;;;1999.90;999.90;;;12.40;99.90;;;;;;5071703;28;20163;-70
2022/10/20 01:59:24;;;;;;;1999.90;999.90;;;12.40;99.90;;;;;;5071741;28;20182;-69
2022/10/20 02:02:02;;;;;;;1999.90;999.90;;;12.50;99.90;;;;;;5071733;28;20425;-70
2022/10/20 02:04:42;;;;;;;1999.90;999.90;;;12.50;99.90;;;;;;5071725;28;20402;-69
2022/10/20 02:07:23;;;;;;;1999.90;999.90;;;12.50;99.90;;;;;;5071531;28;20480;-70
2022/10/20 02:09:54;;;;;;;1999.90;999.90;;;12.50;99.90;;;;;;5071635;28;20890;-70
2022/10/20 02:12:25;;;;;;;1999.90;999.90;;;12.40;99.90;;;;;;5071674;28;20422;-70
2022/10/20 02:14:51;;;;;;;1999.90;999.90;;;12.40;99.90;;;;;;5071634;28;20462;-70
2022/10/20 02:17:18;;;;;;;1999.90;999.90;;;12.40;99.90;;;;;;5071341;28;20416;-70
2022/10/20 02:19:46;;;;;;;1999.90;999.90;;;12.40;99.90;;;;;;5071556;28;20402;-70
2022/10/20 02:22:14;;;;;;;1999.90;999.90;;;12.40;99.90;;;;;;5071409;28;20514;-70
2022/10/20 02:24:41;;;;;;;1999.90;999.90;;;12.40;99.90;;;;;;5071555;28;20902;-70
2022/10/20 02:27:14;;;;;;;1999.90;999.90;;;12.40;99.90;;;;;;5071281;28;20398;-70
2022/10/20 02:29:45;;;;;;;1999.90;999.90;;;12.40;99.90;;;;;;5071452;28;20425;-70
2022/10/20 02:32:11;;;;;;;1999.90;999.90;;;12.40;99.90;;;;;;5071316;28;20452;-70
2022/10/20 02:34:37;;;;;;;1999.90;999.90;;;12.40;99.90;;;;;;5071482;28;20891;-71
2022/10/20 02:37:02;;;;;;;1999.90;999.90;;;12.40;99.90;;;;;;5071198;28;20463;-71
2022/10/20 02:39:28;;;;;;;1999.90;999.90;;;12.40;99.90;;;;;;5071250;28;20168;-71
2022/10/20 02:41:54;;;;;;;1999.90;999.90;;;12.40;99.90;;;;;;5071252;28;20191;-70
2022/10/20 02:44:19;;;;;;;1999.90;999.90;;;12.30;99.90;;;;;;5071194;28;20210;-71
2022/10/20 02:46:45;;;;;;;1999.90;999.90;;;12.40;99.90;;;;;;5071341;28;20172;-71
2022/10/20 02:49:10;;;;;;;1999.90;999.90;;;12.40;99.90;;;;;;5071244;28;20167;-70
2022/10/20 02:51:36;;;;;;;1999.90;999.90;;;12.40;99.90;;;;;;5071226;28;20520;-70
2022/10/20 02:54:02;;;;;;;1999.90;999.90;;;12.40;99.90;;;;;;5071146;28;20180;-71
2022/10/20 02:56:27;;;;;;;1999.90;999.90;;;12.30;99.90;;;;;;5071080;28;20167;-71
2022/10/20 02:58:53;;;;;;;1999.90;999.90;;;12.30;99.90;;;;;;5073324;28;20589;-71
2022/10/20 03:01:18;;;;;;;1999.90;999.90;;;12.30;99.90;;;;;;5074690;28;20214;-70
2022/10/20 03:03:44;;;;;;;1999.90;999.90;;;12.30;99.90;;;;;;5074736;28;20206;-71
2022/10/20 03:06:12;;;;;;;1999.90;999.90;;;12.30;99.90;;;;;;5074686;28;20175;-69
2022/10/20 03:08:38;;;;;;;1999.90;999.90;;;12.30;99.90;;;;;;5074453;28;20174;-71
2022/10/20 03:11:04;;;;;;;1999.90;999.90;;;12.30;99.90;;;;;;5074627;28;20421;-71
2022/10/20 03:13:30;;;;;;;1999.90;999.90;;;12.40;99.90;;;;;;5074551;28;20210;-71
2022/10/20 03:15:56;;;;;;;1999.90;999.90;;;12.40;99.90;;;;;;5074529;28;20880;-71
2022/10/20 03:18:21;;;;;;;1999.90;999.90;;;12.30;99.90;;;;;;5074472;28;20918;-71
2022/10/20 03:20:50;;;;;;;1999.90;999.90;;;12.30;99.90;;;;;;5074492;28;20191;-70
2022/10/20 03:23:16;;;;;;;1999.90;999.90;;;12.40;99.90;;;;;;5074364;28;20231;-70
2022/10/20 03:25:41;;;;;;;1999.90;999.90;;;12.40;99.90;;;;;;5074496;28;20429;-70
2022/10/20 03:28:07;;;;;;;1999.90;999.90;;;12.30;99.90;;;;;;5074046;28;20173;-70
2022/10/20 03:30:32;;;;;;;1999.90;999.90;;;12.30;99.90;;;;;;5074041;28;20167;-70
2022/10/20 03:32:58;;;;;;;1999.90;999.90;;;12.30;99.90;;;;;;5074228;28;20179;-71
2022/10/20 03:35:24;;;;;;;1999.90;999.90;;;12.30;99.90;;;;;;5074248;28;20174;-71
2022/10/20 03:37:49;;;;;;;1999.90;999.90;;;12.30;99.90;;;;;;5073866;28;20213;-71
2022/10/20 03:40:15;;;;;;;1999.90;999.90;;;12.20;99.90;;;;;;5074063;28;20174;-71
2022/10/20 03:42:40;;;;;;;1999.90;999.90;;;12.30;99.90;;;;;;5073804;28;20225;-71
2022/10/20 03:45:06;;;;;;;1999.90;999.90;;;12.30;99.90;;;;;;5074028;28;20169;-71
2022/10/20 03:47:32;;;;;;;1999.90;999.90;;;12.30;99.90;;;;;;5073776;28;20587;-71
2022/10/20 03:49:57;;;;;;;1999.90;999.90;;;12.30;99.90;;;;;;5073888;28;20406;-71
2022/10/20 03:52:23;;;;;;;1999.90;999.90;;;12.30;99.90;;;;;;5074098;28;20680;-71
2022/10/20 03:54:49;;;;;;;1999.90;999.90;;;12.20;99.90;;;;;;5073899;28;20189;-71
2022/10/20 03:57:14;;;;;;;1999.90;999.90;;;12.20;99.90;;;;;;5073547;28;20178;-70
2022/10/20 03:59:40;;;;;;;1999.90;999.90;;;12.10;99.90;;;;;;5073602;28;20198;-70
2022/10/20 04:02:05;;;;;;;1999.90;999.90;;;12.20;99.90;;;;;;5073508;28;20190;-70
2022/10/20 04:04:31;;;;;;;1999.90;999.90;;;12.20;99.90;;;;;;5073573;28;20246;-69
2022/10/20 04:06:56;;;;;;;1999.90;999.90;;;12.20;99.90;;;;;;5073296;28;20645;-70
2022/10/20 04:09:22;;;;;;;1999.90;999.90;;;12.20;99.90;;;;;;5073002;28;20171;-70
2022/10/20 04:11:47;;;;;;;1999.90;999.90;;;12.20;99.90;;;;;;5073366;28;20277;-69
2022/10/20 04:14:13;;;;;;;1999.90;999.90;;;12.20;99.90;;;;;;5073381;28;20656;-69
2022/10/20 04:16:40;;;;;;;1999.90;999.90;;;12.10;99.90;;;;;;5073129;28;20206;-70
2022/10/20 04:19:06;;;;;;;1999.90;999.90;;;12.20;99.90;;;;;;5073321;28;20171;-70
2022/10/20 04:21:32;;;;;;;1999.90;999.90;;;12.10;99.90;;;;;;5073107;28;20444;-69
2022/10/20 04:23:57;;;;;;;1999.90;999.90;;;12.10;99.90;;;;;;5073128;28;20194;-70
2022/10/20 04:26:23;;;;;;;1999.90;999.90;;;12.10;99.90;;;;;;5072934;28;20224;-70
2022/10/20 04:28:48;;;;;;;1999.90;999.90;;;12.10;99.90;;;;;;5072955;28;20199;-70
2022/10/20 04:31:14;;;;;;;1999.90;999.90;;;12.20;99.90;;;;;;5072910;28;20200;-69
2022/10/20 04:33:39;;;;;;;1999.90;999.90;;;12.20;99.90;;;;;;5073048;28;20549;-70
2022/10/20 04:36:07;;;;;;;1999.90;999.90;;;12.20;99.90;;;;;;5072881;28;20258;-70
2022/10/20 04:38:34;;;;;;;1999.90;999.90;;;12.20;99.90;;;;;;5072808;28;20534;-70
2022/10/20 04:41:03;;;;;;;1999.90;999.90;;;12.20;99.90;;;;;;5072754;28;20425;-70
2022/10/20 04:43:29;;;;;;;1999.90;999.90;;;12.20;99.90;;;;;;5072881;28;20507;-71
2022/10/20 04:46:01;;;;;;;1999.90;999.90;;;12.10;99.90;;;;;;5072705;28;20482;-71
2022/10/20 04:48:27;;;;;;;1999.90;999.90;;;12.20;99.90;;;;;;5072457;28;20433;-70
2022/10/20 04:51:03;;;;;;;1999.90;999.90;;;12.20;99.90;;;;;;5072542;28;20465;-71
2022/10/20 04:53:29;;;;;;;1999.90;999.90;;;12.10;99.90;;;;;;5072588;28;20167;-70
2022/10/20 04:55:56;;;;;;;1999.90;999.90;;;12.10;99.90;;;;;;5072592;28;20420;-71
2022/10/20 04:58:22;;;;;;;1999.90;999.90;;;12.10;99.90;;;;;;5072308;28;20541;-71
2022/10/20 05:00:48;;;;;;;1999.90;999.90;;;12.10;99.90;;;;;;5072454;28;20460;-70
2022/10/20 05:03:13;;;;;;;1999.90;999.90;;;12.00;99.90;;;;;;5072417;28;20503;-70
2022/10/20 05:05:39;;;;;;;1999.90;999.90;;;12.00;99.90;;;;;;5072304;28;20577;-70
2022/10/20 05:08:04;;;;;;;1999.90;999.90;;;12.00;99.90;;;;;;5072092;28;20276;-71
2022/10/20 05:10:30;;;;;;;1999.90;999.90;;;12.00;99.90;;;;;;5072212;28;20192;-70
2022/10/20 05:12:55;;;;;;;1999.90;999.90;;;12.00;99.90;;;;;;5072412;28;20178;-70
2022/10/20 05:15:21;;;;;;;1999.90;999.90;;;12.00;99.90;;;;;;5072308;28;20577;-69
2022/10/20 05:17:47;;;;;;;1999.90;999.90;;;12.00;99.90;;;;;;5072002;28;20170;-71
2022/10/20 05:20:12;;;;;;;1999.90;999.90;;;12.00;99.90;;;;;;5071602;28;20221;-70
2022/10/20 05:22:38;;;;;;;1999.90;999.90;;;12.00;99.90;;;;;;5071837;28;20191;-70
2022/10/20 05:25:04;;;;;;;1999.90;999.90;;;11.90;99.90;;;;;;5072169;28;20193;-70
2022/10/20 05:27:29;;;;;;;1999.90;999.90;;;11.90;99.90;;;;;;5071909;28;20166;-70
2022/10/20 05:29:55;;;;;;;1999.90;999.90;;;11.90;99.90;;;;;;5071984;28;20825;-71
2022/10/20 05:32:20;;;;;;;1999.90;999.90;;;11.90;99.90;;;;;;5071859;28;20211;-70
2022/10/20 05:34:46;;;;;;;1999.90;999.90;;;11.90;99.90;;;;;;5071942;28;20254;-70
2022/10/20 05:37:12;;;;;;;1999.90;999.90;;;11.90;99.90;;;;;;5072137;28;20170;-70
2022/10/20 05:39:37;;;;;;;1999.90;999.90;;;11.90;99.90;;;;;;5071941;28;20163;-70
2022/10/20 05:42:03;;;;;;;1999.90;999.90;;;11.90;99.90;;;;;;5071927;28;20561;-70
2022/10/20 05:44:28;;;;;;;1999.90;999.90;;;11.90;99.90;;;;;;5071992;28;20532;-70
2022/10/20 05:46:54;;;;;;;1999.90;999.90;;;11.90;99.90;;;;;;5071731;28;20174;-70
2022/10/20 05:49:22;;;;;;;1999.90;999.90;;;11.90;99.90;;;;;;5071808;28;20171;-69
2022/10/20 05:51:47;;;;;;;1999.90;999.90;;;11.90;99.90;;;;;;5071852;28;20715;-69
2022/10/20 05:54:14;;;;;;;1999.90;999.90;;;11.90;99.90;;;;;;5071927;28;20405;-70
2022/10/20 05:56:39;;;;;;;1999.90;999.90;;;11.90;99.90;;;;;;5071616;28;20174;-70
2022/10/20 05:59:05;;;;;;;1999.90;999.90;;;11.90;99.90;;;;;;5071758;28;20905;-70
2022/10/20 06:01:46;;;;;;;1999.90;999.90;;;11.80;99.90;;;;;;5071699;28;20435;-70
2022/10/20 06:04:12;;;;;;;1999.90;999.90;;;11.80;99.90;;;;;;5071652;28;20267;-70
2022/10/20 06:06:37;;;;;;;1999.90;999.90;;;11.80;99.90;;;;;;5071477;28;20453;-70
2022/10/20 06:09:05;;;;;;;1999.90;999.90;;;11.90;99.90;;;;;;5071654;28;20488;-71
2022/10/20 06:11:30;;;;;;;1999.90;999.90;;;11.90;99.90;;;;;;5071586;28;20178;-71
2022/10/20 06:13:56;;;;;;;1999.90;999.90;;;11.90;99.90;;;;;;5071581;28;20409;-71
2022/10/20 06:16:24;;;;;;;1999.90;999.90;;;11.90;99.90;;;;;;5071551;28;20524;-70
2022/10/20 06:18:50;;;;;;;1999.90;999.90;;;12.00;99.90;;;;;;5071342;28;20183;-70
2022/10/20 06:21:20;;;;;;;1999.90;999.90;;;11.90;99.90;;;;;;5071630;28;20430;-70
2022/10/20 06:23:46;;;;;;;1999.90;999.90;;;11.90;99.90;;;;;;5071513;28;20195;-71
2022/10/20 06:26:16;;;;;;;1999.90;999.90;;;12.00;99.90;;;;;;5071574;28;20962;-70
2022/10/20 06:28:43;;;;;;;1999.90;999.90;;;12.00;99.90;;;;;;5071314;28;20518;-70
2022/10/20 06:31:24;;;;;;;1999.90;999.90;;;12.10;99.90;;;;;;5071423;28;20474;-71
2022/10/20 06:33:50;;;;;;;1999.90;999.90;;;12.00;99.90;;;;;;5075344;28;20411;-71
2022/10/20 06:36:17;;;;;;;1999.90;999.90;;;12.10;99.90;;;;;;5075263;28;20437;-70
2022/10/20 06:38:43;;;;;;;1999.90;999.90;;;12.00;99.90;;;;;;5075083;28;20782;-71
2022/10/20 06:41:12;;;;;;;1999.90;999.90;;;12.10;99.90;;;;;;5075166;28;20425;-71
2022/10/20 06:43:38;;;;;;;1999.90;999.90;;;12.10;99.90;;;;;;5075010;28;20961;-70
2022/10/20 06:46:06;;;;;;;1999.90;999.90;;;12.10;99.90;;;;;;5074952;28;20393;-70
2022/10/20 06:48:33;;;;;;;1999.90;999.90;;;12.20;99.90;;;;;;5075076;28;20539;-70
2022/10/20 06:51:18;;;;;;;1999.90;999.90;;;12.20;99.90;;;;;;5074886;28;20525;-70
2022/10/20 06:53:44;;;;;;;1999.90;999.90;;;12.20;99.90;;;;;;5075164;28;20964;-70
2022/10/20 06:56:13;;;;;;;1999.90;999.90;;;12.30;99.90;;;;;;5074700;28;20413;-70
2022/10/20 06:58:41;;;;;;;1999.90;999.90;;;12.30;99.90;;;;;;5074883;28;20524;-70
2022/10/20 07:01:15;;;;;;;1999.90;999.90;;;12.40;99.90;;;;;;5074692;28;20425;-71
2022/10/20 07:03:41;;;;;;;1999.90;999.90;;;12.40;99.90;;;;;;5074876;28;20448;-70
2022/10/20 07:06:11;;;;;;;1999.90;999.90;;;12.40;99.90;;;;;;5074623;28;20408;-70
2022/10/20 07:08:36;;;;;;;1999.90;999.90;;;12.50;99.90;;;;;;5074336;28;20397;-71
2022/10/20 07:11:07;;;;;;;1999.90;999.90;;;12.50;99.90;;;;;;5074465;28;20994;-70
2022/10/20 07:13:34;;;;;;;1999.90;999.90;;;12.50;99.90;;;;;;5074602;28;20258;-70
2022/10/20 07:16:00;;;;;;;1999.90;999.90;;;12.60;99.90;;;;;;5074362;28;20478;-71
2022/10/20 07:18:27;;;;;;;1999.90;999.90;;;12.60;99.90;;;;;;5074259;28;20417;-70
2022/10/20 07:20:58;;;;;;;1999.90;999.90;;;12.60;99.90;;;;;;5074346;28;20432;-70
2022/10/20 07:23:25;;;;;;;1999.90;999.90;;;12.60;99.90;;;;;;5074255;28;21008;-70
2022/10/20 07:25:50;;;;;;;1999.90;999.90;;;12.60;99.90;;;;;;5074194;28;20408;-70
2022/10/20 07:28:16;;;;;;;1999.90;999.90;;;12.70;99.90;;;;;;5074270;28;20410;-70
2022/10/20 07:30:41;;;;;;;1999.90;999.90;;;12.70;99.90;;;;;;5074175;28;20162;-71
2022/10/20 07:33:08;;;;;;;1999.90;999.90;;;12.80;99.90;;;;;;5150375;22;20221;-68
2022/10/20 07:35:35;;;;;;;1999.90;999.90;;;12.80;99.90;;;;;;5114799;28;20646;-67
2022/10/20 07:38:00;;;;;;;1999.90;999.90;;;12.80;99.90;;;;;;5114356;28;20776;-68
2022/10/20 07:40:26;;;;;;;1999.90;999.90;;;12.90;99.90;;;;;;5114844;28;20392;-68
2022/10/20 07:42:52;;;;;;;1999.90;999.90;;;12.90;99.90;;;;;;5114361;28;20189;-68
2022/10/20 07:45:18;;;;;;;1999.90;999.90;;;12.90;99.90;;;;;;5114174;28;20170;-68
2022/10/20 07:47:44;;;;;;;1999.90;999.90;;;12.90;99.90;;;;;;5114344;28;20943;-68
2022/10/20 07:50:11;;;;;;;1999.90;999.90;;;12.90;99.90;;;;;;5114619;28;20397;-68
2022/10/20 07:52:37;;;;;;;1999.90;999.90;;;12.90;99.90;;;;;;5114879;28;20685;-68
2022/10/20 07:55:03;;;;;;;1999.90;999.90;;;12.90;99.90;;;;;;5114438;28;20401;-67
2022/10/20 07:57:29;;;;;;;1999.90;999.90;;;13.00;99.90;;;;;;5114149;28;20945;-67
2022/10/20 07:59:54;;;;;;;1999.90;999.90;;;13.00;99.90;;;;;;5114290;28;20404;-67
2022/10/20 08:02:22;;;;;;;1999.90;999.90;;;13.00;99.90;;;;;;5114038;28;20191;-68
2022/10/20 08:04:48;;;;;;;1999.90;999.90;;;13.00;99.90;;;;;;5114683;28;20618;-68
2022/10/20 08:07:13;;;;;;;1999.90;999.90;;;13.00;99.90;;;;;;5113919;28;20456;-67
2022/10/20 08:09:39;;;;;;;1999.90;999.90;;;13.00;99.90;;;;;;5114079;28;20413;-67
2022/10/20 08:12:05;;;;;;;1999.90;999.90;;;13.10;99.90;;;;;;5114075;28;20594;-67
2022/10/20 08:14:32;;;;;;;1999.90;999.90;;;13.10;99.90;;;;;;5114034;28;20172;-67
2022/10/20 08:16:59;;;;;;;1999.90;999.90;;;13.10;99.90;;;;;;5113986;28;20220;-68
2022/10/20 08:19:25;;;;;;;1999.90;999.90;;;13.20;99.90;;;;;;5113853;28;20412;-68
2022/10/20 08:21:51;;;;;;;1999.90;999.90;;;13.30;99.90;;;;;;5113708;28;20423;-68
2022/10/20 08:24:16;;;;;;;1999.90;999.90;;;13.30;99.90;;;;;;5113765;28;20507;-67
2022/10/20 08:26:42;;;;;;;1999.90;999.90;;;13.30;99.90;;;;;;5113527;28;20960;-68
2022/10/20 08:29:08;;;;;;;1999.90;999.90;;;13.30;99.90;;;;;;5113672;28;20168;-68
2022/10/20 08:31:34;;;;;;;1999.90;999.90;;;13.30;99.90;;;;;;5113420;28;20234;-68
2022/10/20 08:33:59;;;;;;;1999.90;999.90;;;13.40;99.90;;;;;;5113663;28;20487;-67
2022/10/20 08:36:27;;;;;;;1999.90;999.90;;;13.40;99.90;;;;;;5113507;28;20171;-68
2022/10/20 08:38:53;;;;;;;1999.90;999.90;;;13.40;99.90;;;;;;5113547;28;20179;-67
2022/10/20 08:41:26;;;;;;;1999.90;999.90;;;13.50;99.90;;;;;;5113521;28;20424;-68
2022/10/20 08:43:55;;;;;;;1999.90;999.90;;;13.50;99.90;;;;;;5113518;28;20456;-67
2022/10/20 08:46:28;;;;;;;1999.90;999.90;;;13.50;99.90;;;;;;5113594;28;20940;-69
2022/10/20 08:48:54;;;;;;;1999.90;999.90;;;13.60;99.90;;;;;;5113294;28;20403;-68
2022/10/20 08:51:23;;;;;;;1999.90;999.90;;;13.60;99.90;;;;;;5113441;28;20421;-68
2022/10/20 08:53:51;;;;;;;1999.90;999.90;;;13.60;99.90;;;;;;5113286;28;20165;-68
2022/10/20 08:56:18;;;;;;;1999.90;999.90;;;13.80;99.90;;;;;;5113178;28;20836;-69
2022/10/20 08:58:45;;;;;;;1999.90;999.90;;;13.80;99.90;;;;;;5113089;28;20410;-68
2022/10/20 09:01:21;;;;;;;1999.90;999.90;;;14.00;99.90;;;;;;5112952;28;20418;-68
2022/10/20 09:03:58;;;;;;;1999.90;999.90;;;14.00;99.90;;;;;;5112998;28;20451;-68
2022/10/20 09:06:24;;;;;;;1999.90;999.90;;;14.10;99.90;;;;;;5113078;28;20979;-68
2022/10/20 09:08:51;;;;;;;1999.90;999.90;;;14.20;99.90;;;;;;5113010;28;20627;-68
2022/10/20 09:11:31;;;;;;;1999.90;999.90;;;14.20;99.90;;;;;;5113371;28;20495;-69
2022/10/20 09:13:56;;;;;;;1999.90;999.90;;;14.20;99.90;;;;;;5113089;28;20403;-68
2022/10/20 09:16:37;;;;;;;1999.90;999.90;;;14.20;99.90;;;;;;5113044;28;20495;-68
2022/10/20 09:19:04;;;;;;;1999.90;999.90;;;14.20;99.90;;;;;;5112874;28;20253;-68
2022/10/20 09:21:33;;;;;;;1999.90;999.90;;;14.10;99.90;;;;;;5112776;28;20428;-67
2022/10/20 09:24:05;;;;;;;1999.90;999.90;;;14.00;99.90;;;;;;5111380;28;21073;-68
2022/10/20 09:26:39;;;;;;;1999.90;999.90;;;14.00;99.90;;;;;;5112629;28;20400;-68
2022/10/20 09:29:16;;;;;;;1999.90;999.90;;;13.90;99.90;;;;;;5112571;28;20840;-68
2022/10/20 09:31:54;;;;;;;1999.90;999.90;;;13.90;99.90;;;;;;5112525;28;20474;-68
2022/10/20 09:34:25;;;;;;;1999.90;999.90;;;13.90;99.90;;;;;;5113022;28;20764;-69
2022/10/20 09:36:56;;;;;;;1999.90;999.90;;;13.90;99.90;;;;;;5112300;28;20447;-68
2022/10/20 09:39:26;;;;;;;1999.90;999.90;;;14.00;99.90;;;;;;5112650;28;20396;-68
2022/10/20 09:42:01;;;;;;;1999.90;999.90;;;14.00;99.90;;;;;;5113110;28;20423;-68
2022/10/20 09:44:30;;;;;;;1999.90;999.90;;;14.00;99.90;;;;;;5112516;28;20480;-69
2022/10/20 09:46:56;;;;;;;1999.90;999.90;;;13.90;99.90;;;;;;5112217;28;20407;-68
2022/10/20 09:49:32;;;;;;;1999.90;999.90;;;13.90;99.90;;;;;;5112419;28;20455;-68
2022/10/20 09:51:59;;;;;;;1999.90;999.90;;;13.80;99.90;;;;;;5112398;28;20192;-67
2022/10/20 09:54:26;;;;;;;1999.90;999.90;;;13.80;99.90;;;;;;5112500;28;20405;-67
2022/10/20 09:56:53;;;;;;;1999.90;999.90;;;13.80;99.90;;;;;;5112436;28;20425;-68
2022/10/20 09:59:36;;;;;;;1999.90;999.90;;;13.80;99.90;;;;;;5112384;28;20416;-68
2022/10/20 10:02:14;;;;;;;1999.90;999.90;;;13.80;99.90;;;;;;5112299;28;20429;-68
2022/10/20 10:04:43;;;;;;;1999.90;999.90;;;13.90;99.90;;;;;;5112277;28;20417;-68
2022/10/20 10:07:21;;;;;;;1999.90;999.90;;;13.90;99.90;;;;;;5113708;28;20395;-68
2022/10/20 10:09:58;;;;;;;1999.90;999.90;;;14.00;99.90;;;;;;5116499;28;20821;-68
2022/10/20 10:12:26;;;;;;;1999.90;999.90;;;14.00;99.90;;;;;;5116276;28;20415;-68
2022/10/20 10:14:59;;;;;;;1999.90;999.90;;;14.10;99.90;;;;;;5116338;28;20502;-68
2022/10/20 10:17:43;;;;;;;1999.90;999.90;;;14.20;99.90;;;;;;5116427;28;20497;-68
2022/10/20 10:20:08;;;;;;;1999.90;999.90;;;14.30;99.90;;;;;;5116468;28;20433;-68
2022/10/20 10:22:34;;;;;;;1999.90;999.90;;;14.30;99.90;;;;;;5116073;28;20494;-68
2022/10/20 10:25:01;;;;;;;1999.90;999.90;;;14.30;99.90;;;;;;5116299;28;20180;-68
2022/10/20 10:27:32;;;;;;;1999.90;999.90;;;14.30;99.90;;;;;;5115166;28;20445;-68
2022/10/20 10:30:29;;;;;;;1999.90;999.90;;;14.40;99.90;;;;;;5116114;28;20459;-68
2022/10/20 10:32:55;;;;;;;1999.90;999.90;;;14.30;99.90;;;;;;5115823;28;20880;-68
2022/10/20 10:35:40;;;;;;;1999.90;999.90;;;14.20;99.90;;;;;;5115769;28;20407;-68
2022/10/20 10:38:09;;;;;;;1999.90;999.90;;;14.10;99.90;;;;;;5115481;28;20417;-67
2022/10/20 10:41:01;;;;;;;1999.90;999.90;;;14.10;99.90;;;;;;5115902;28;20417;-68
2022/10/20 10:43:47;;;;;;;1999.90;999.90;;;14.00;99.90;;;;;;5115617;28;20481;-69
2022/10/20 10:46:25;;;;;;;1999.90;999.90;;;13.90;99.90;;;;;;5115691;28;20399;-68
2022/10/20 10:49:03;;;;;;;1999.90;999.90;;;13.80;99.90;;;;;;5115584;28;20432;-69
2022/10/20 10:52:05;;;;;;;1999.90;999.90;;;13.80;99.90;;;;;;5115700;28;20923;-68
2022/10/20 10:54:52;;;;;;;1999.90;999.90;;;13.80;99.90;;;;;;5115761;28;20762;-68
2022/10/20 10:58:05;;;;;;;1999.90;999.90;;;13.70;99.90;;;;;;5115360;28;20409;-68
2022/10/20 11:01:09;;;;;;;1999.90;999.90;;;13.80;99.90;;;;;;5052510;28;20448;-68
2022/10/20 11:03:46;;;;;;;1999.90;999.90;;;13.80;99.90;;;;;;5030120;28;20497;-67
2022/10/20 11:06:35;;;;;;;1999.90;999.90;;;13.60;99.90;;;;;;5107031;28;20448;-68
2022/10/20 11:09:23;;;;;;;1999.90;999.90;;;13.50;99.90;;;;;;5115495;28;20404;-68
2022/10/20 11:12:06;;;;;;;1999.90;999.90;;;13.50;99.90;;;;;;5115300;28;20403;-67
2022/10/20 11:14:59;;;;;;;1999.90;999.90;;;13.40;99.90;;;;;;5115226;28;20403;-68
2022/10/20 11:17:52;;;;;;;1999.90;999.90;;;13.40;99.90;;;;;;5115417;28;20404;-68
2022/10/20 11:20:33;;;;;;;1999.90;999.90;;;13.40;99.90;;;;;;5114569;28;20395;-68
2022/10/20 11:23:52;;;;;;;1999.90;999.90;;;13.40;99.90;;;;;;5114917;28;20449;-68
2022/10/20 11:26:24;;;;;;;1999.90;999.90;;;13.50;99.90;;;;;;5071895;28;21059;-68
2022/10/20 11:28:54;;;;;;;1999.90;999.90;;;13.50;99.90;;;;;;5107426;28;20775;-68
2022/10/20 11:31:31;;;;;;;1999.90;999.90;;;13.50;99.90;;;;;;5114746;28;21213;-68
2022/10/20 11:34:25;;;;;;;1999.90;999.90;;;13.50;99.90;;;;;;5115003;28;20418;-68
2022/10/20 11:37:16;;;;;;;1999.90;999.90;;;13.50;99.90;;;;;;5114515;28;20513;-68
2022/10/20 11:39:48;;;;;;;1999.90;999.90;;;13.60;99.90;;;;;;5114679;28;20407;-69
2022/10/20 11:42:22;;;;;;;1999.90;999.90;;;13.60;99.90;;;;;;5114671;28;20798;-68
2022/10/20 11:44:50;;;;;;;1999.90;999.90;;;13.60;99.90;;;;;;5114697;28;20416;-68
2022/10/20 11:47:21;;;;;;;1999.90;999.90;;;13.60;99.90;;;;;;5114484;28;20479;-69
2022/10/20 11:49:47;;;;;;;1999.90;999.90;;;13.70;99.90;;;;;;5114577;28;20399;-67
2022/10/20 11:52:24;;;;;;;1999.90;999.90;;;13.70;99.90;;;;;;5114546;28;20435;-68
2022/10/20 11:54:50;;;;;;;1999.90;999.90;;;13.80;99.90;;;;;;5114511;28;20224;-68
2022/10/20 11:57:43;;;;;;;1999.90;999.90;;;13.80;99.90;;;;;;5110207;28;20400;-68
2022/10/20 12:00:41;;;;;;;1999.90;999.90;;;13.90;99.90;;;;;;5103538;28;20306;-67
2022/10/20 12:03:25;;;;;;;1999.90;999.90;;;14.00;99.90;;;;;;5112405;28;20465;-66
2022/10/20 12:05:53;;;;;;;1999.90;999.90;;;14.00;99.90;;;;;;5113365;28;20414;-67
2022/10/20 12:08:52;;;;;;;1999.90;999.90;;;14.00;99.90;;;;;;5113397;28;20815;-66
2022/10/20 12:11:33;;;;;;;1999.90;999.90;;;14.00;99.90;;;;;;5113238;28;20413;-66
2022/10/20 12:14:01;;;;;;;1999.90;999.90;;;14.10;99.90;;;;;;5113349;28;20406;-67
2022/10/20 12:16:58;;;;;;;1999.90;999.90;;;14.10;99.90;;;;;;5113192;28;20400;-66